sensor_id;sensor_type;location;lat;lon;timestamp;pressure;altitude;pressure_sealevel;temperature;humidity
64211;BME280;50528;48.514;14.394;2023-03-15T00:00:06;92966.41;;;3.70;68.58
64211;BME280;50528;48.514;14.394;2023-03-15T00:01:06;92964.96;;;3.64;68.64
64211;BME280;50528;48.514;14.394;2023-03-15T00:01:40;92966.09;;;3.61;68.79
64211;BME280;50528;48.514;14.394;2023-03-15T00:02:13;92966.38;;;3.60;68.83
64211;BME280;50528;48.514;14.394;2023-03-15T00:02:47;92963.89;;;3.60;68.85
64211;BME280;50528;48.514;14.394;2023-03-15T00:03:21;92965.89;;;3.61;68.70
64211;BME280;50528;48.514;14.394;2023-03-15T00:03:56;92959.81;;;3.61;68.72
64211;BME280;50528;48.514;14.394;2023-03-15T00:04:30;92963.14;;;3.58;68.89
64211;BME280;50528;48.514;14.394;2023-03-15T00:05:09;92965.42;;;3.59;68.88
64211;BME280;50528;48.514;14.394;2023-03-15T00:05:46;92962.49;;;3.62;68.63
64211;BME280;50528;48.514;14.394;2023-03-15T00:06:20;92961.66;;;3.65;68.55
64211;BME280;50528;48.514;14.394;2023-03-15T00:06:54;92963.50;;;3.65;68.37
64211;BME280;50528;48.514;14.394;2023-03-15T00:07:28;92956.17;;;3.59;68.85
64211;BME280;50528;48.514;14.394;2023-03-15T00:08:01;92961.14;;;3.55;68.88
64211;BME280;50528;48.514;14.394;2023-03-15T00:08:36;92952.64;;;3.54;68.88
64211;BME280;50528;48.514;14.394;2023-03-15T00:09:10;92954.93;;;3.59;68.76
64211;BME280;50528;48.514;14.394;2023-03-15T00:09:43;92952.75;;;3.59;68.67
64211;BME280;50528;48.514;14.394;2023-03-15T00:10:16;92952.77;;;3.62;68.56
64211;BME280;50528;48.514;14.394;2023-03-15T00:10:51;92951.81;;;3.56;68.69
64211;BME280;50528;48.514;14.394;2023-03-15T00:11:25;92951.34;;;3.56;68.80
64211;BME280;50528;48.514;14.394;2023-03-15T00:11:58;92946.23;;;3.56;68.88
64211;BME280;50528;48.514;14.394;2023-03-15T00:12:32;92953.19;;;3.58;68.81
64211;BME280;50528;48.514;14.394;2023-03-15T00:13:07;92953.02;;;3.55;68.94
64211;BME280;50528;48.514;14.394;2023-03-15T00:13:40;92950.25;;;3.57;68.87
64211;BME280;50528;48.514;14.394;2023-03-15T00:14:15;92950.14;;;3.58;68.74
64211;BME280;50528;48.514;14.394;2023-03-15T00:14:49;92953.74;;;3.57;68.74
64211;BME280;50528;48.514;14.394;2023-03-15T00:15:22;92956.67;;;3.58;68.88
64211;BME280;50528;48.514;14.394;2023-03-15T00:15:58;92957.20;;;3.56;68.93
64211;BME280;50528;48.514;14.394;2023-03-15T00:16:32;92959.66;;;3.53;68.97
64211;BME280;50528;48.514;14.394;2023-03-15T00:17:05;92961.33;;;3.52;69.01
64211;BME280;50528;48.514;14.394;2023-03-15T00:17:40;92962.79;;;3.53;69.13
64211;BME280;50528;48.514;14.394;2023-03-15T00:18:14;92967.64;;;3.54;69.15
64211;BME280;50528;48.514;14.394;2023-03-15T00:18:48;92964.57;;;3.56;69.06
64211;BME280;50528;48.514;14.394;2023-03-15T00:19:21;92967.41;;;3.55;69.07
64211;BME280;50528;48.514;14.394;2023-03-15T00:19:55;92959.14;;;3.49;69.13
64211;BME280;50528;48.514;14.394;2023-03-15T00:20:29;92972.80;;;3.54;69.16
64211;BME280;50528;48.514;14.394;2023-03-15T00:21:03;92967.13;;;3.56;69.04
64211;BME280;50528;48.514;14.394;2023-03-15T00:21:36;92966.36;;;3.59;68.90
64211;BME280;50528;48.514;14.394;2023-03-15T00:22:12;92967.86;;;3.58;68.94
64211;BME280;50528;48.514;14.394;2023-03-15T00:22:45;92955.20;;;3.52;68.96
64211;BME280;50528;48.514;14.394;2023-03-15T00:23:18;92968.64;;;3.56;68.99
64211;BME280;50528;48.514;14.394;2023-03-15T00:23:52;92965.52;;;3.54;69.05
64211;BME280;50528;48.514;14.394;2023-03-15T00:24:26;92960.96;;;3.57;68.99
64211;BME280;50528;48.514;14.394;2023-03-15T00:24:59;92963.41;;;3.60;68.88
64211;BME280;50528;48.514;14.394;2023-03-15T00:25:33;92955.41;;;3.52;68.89
64211;BME280;50528;48.514;14.394;2023-03-15T00:26:06;92960.09;;;3.55;68.97
64211;BME280;50528;48.514;14.394;2023-03-15T00:26:39;92960.10;;;3.55;68.93
64211;BME280;50528;48.514;14.394;2023-03-15T00:27:13;92958.70;;;3.60;68.74
64211;BME280;50528;48.514;14.394;2023-03-15T00:27:46;92963.11;;;3.57;68.77
64211;BME280;50528;48.514;14.394;2023-03-15T00:28:20;92956.85;;;3.56;68.86
64211;BME280;50528;48.514;14.394;2023-03-15T00:28:56;92965.41;;;3.56;68.99
64211;BME280;50528;48.514;14.394;2023-03-15T00:29:30;92963.29;;;3.58;68.90
64211;BME280;50528;48.514;14.394;2023-03-15T00:30:05;92964.71;;;3.62;68.74
64211;BME280;50528;48.514;14.394;2023-03-15T00:30:39;92961.47;;;3.58;68.94
64211;BME280;50528;48.514;14.394;2023-03-15T00:31:21;92964.80;;;3.57;68.93
64211;BME280;50528;48.514;14.394;2023-03-15T00:31:55;92963.61;;;3.54;68.99
64211;BME280;50528;48.514;14.394;2023-03-15T00:32:28;92969.11;;;3.50;69.19
64211;BME280;50528;48.514;14.394;2023-03-15T00:33:03;92968.43;;;3.47;69.43
64211;BME280;50528;48.514;14.394;2023-03-15T00:33:40;92975.37;;;3.48;69.43
64211;BME280;50528;48.514;14.394;2023-03-15T00:34:15;92971.34;;;3.50;69.39
64211;BME280;50528;48.514;14.394;2023-03-15T00:34:50;92973.22;;;3.45;69.48
64211;BME280;50528;48.514;14.394;2023-03-15T00:35:26;92979.38;;;3.60;69.16
64211;BME280;50528;48.514;14.394;2023-03-15T00:36:05;92976.09;;;3.57;69.13
64211;BME280;50528;48.514;14.394;2023-03-15T00:36:39;92977.30;;;3.55;69.08
64211;BME280;50528;48.514;14.394;2023-03-15T00:37:15;92968.73;;;3.44;69.22
64211;BME280;50528;48.514;14.394;2023-03-15T00:37:58;92972.14;;;3.46;69.32
64211;BME280;50528;48.514;14.394;2023-03-15T00:38:33;92971.84;;;3.44;69.43
64211;BME280;50528;48.514;14.394;2023-03-15T00:39:08;92973.86;;;3.47;69.38
64211;BME280;50528;48.514;14.394;2023-03-15T00:39:42;92973.86;;;3.54;69.28
64211;BME280;50528;48.514;14.394;2023-03-15T00:40:17;92970.05;;;3.52;69.22
64211;BME280;50528;48.514;14.394;2023-03-15T00:40:50;92969.23;;;3.49;69.26
64211;BME280;50528;48.514;14.394;2023-03-15T00:41:24;92974.19;;;3.49;69.27
64211;BME280;50528;48.514;14.394;2023-03-15T00:41:57;92970.52;;;3.52;69.25
64211;BME280;50528;48.514;14.394;2023-03-15T00:42:31;92980.40;;;3.55;69.16
64211;BME280;50528;48.514;14.394;2023-03-15T00:43:05;92976.65;;;3.53;69.15
64211;BME280;50528;48.514;14.394;2023-03-15T00:43:40;92977.76;;;3.49;69.25
64211;BME280;50528;48.514;14.394;2023-03-15T00:44:13;92976.02;;;3.47;69.32
64211;BME280;50528;48.514;14.394;2023-03-15T00:44:47;92974.58;;;3.50;69.36
64211;BME280;50528;48.514;14.394;2023-03-15T00:45:21;92975.86;;;3.52;69.29
64211;BME280;50528;48.514;14.394;2023-03-15T00:45:54;92974.80;;;3.53;69.23
64211;BME280;50528;48.514;14.394;2023-03-15T00:46:27;92978.67;;;3.52;69.24
64211;BME280;50528;48.514;14.394;2023-03-15T00:47:02;92982.71;;;3.51;69.37
64211;BME280;50528;48.514;14.394;2023-03-15T00:47:35;92981.25;;;3.53;69.41
64211;BME280;50528;48.514;14.394;2023-03-15T00:48:09;92985.09;;;3.58;69.27
64211;BME280;50528;48.514;14.394;2023-03-15T00:48:42;92982.55;;;3.56;69.31
64211;BME280;50528;48.514;14.394;2023-03-15T00:49:15;92977.88;;;3.54;69.36
64211;BME280;50528;48.514;14.394;2023-03-15T00:49:49;92981.62;;;3.54;69.42
64211;BME280;50528;48.514;14.394;2023-03-15T00:50:23;92983.34;;;3.54;69.47
64211;BME280;50528;48.514;14.394;2023-03-15T00:51:16;92981.36;;;3.58;69.44
64211;BME280;50528;48.514;14.394;2023-03-15T00:51:53;92985.52;;;3.58;69.34
64211;BME280;50528;48.514;14.394;2023-03-15T00:52:33;92983.23;;;3.56;69.47
64211;BME280;50528;48.514;14.394;2023-03-15T00:53:08;92984.39;;;3.56;69.39
64211;BME280;50528;48.514;14.394;2023-03-15T00:53:43;92982.77;;;3.53;69.55
64211;BME280;50528;48.514;14.394;2023-03-15T00:54:17;92981.26;;;3.56;69.53
64211;BME280;50528;48.514;14.394;2023-03-15T00:54:54;92986.66;;;3.58;69.40
64211;BME280;50528;48.514;14.394;2023-03-15T00:55:27;92980.20;;;3.55;69.42
64211;BME280;50528;48.514;14.394;2023-03-15T00:56:09;92980.03;;;3.52;69.53
64211;BME280;50528;48.514;14.394;2023-03-15T00:56:48;92976.30;;;3.52;69.57
64211;BME280;50528;48.514;14.394;2023-03-15T00:57:22;92970.65;;;3.51;69.63
64211;BME280;50528;48.514;14.394;2023-03-15T00:57:55;92972.04;;;3.51;69.67
64211;BME280;50528;48.514;14.394;2023-03-15T00:58:29;92973.29;;;3.51;69.82
64211;BME280;50528;48.514;14.394;2023-03-15T00:59:03;92973.54;;;3.50;69.83
64211;BME280;50528;48.514;14.394;2023-03-15T00:59:36;92973.36;;;3.61;69.52
64211;BME280;50528;48.514;14.394;2023-03-15T01:00:16;92979.12;;;3.60;69.49
64211;BME280;50528;48.514;14.394;2023-03-15T01:00:52;92977.42;;;3.59;69.48
64211;BME280;50528;48.514;14.394;2023-03-15T01:01:27;92978.53;;;3.57;69.70
64211;BME280;50528;48.514;14.394;2023-03-15T01:02:03;92980.37;;;3.65;69.63
64211;BME280;50528;48.514;14.394;2023-03-15T01:02:37;92977.55;;;3.66;69.41
64211;BME280;50528;48.514;14.394;2023-03-15T01:03:10;92977.00;;;3.61;69.49
64211;BME280;50528;48.514;14.394;2023-03-15T01:03:45;92972.52;;;3.70;69.29
64211;BME280;50528;48.514;14.394;2023-03-15T01:04:18;92976.80;;;3.70;69.15
64211;BME280;50528;48.514;14.394;2023-03-15T01:04:52;92972.61;;;3.66;69.27
64211;BME280;50528;48.514;14.394;2023-03-15T01:05:25;92976.64;;;3.63;69.60
64211;BME280;50528;48.514;14.394;2023-03-15T01:06:10;92975.69;;;3.58;69.69
64211;BME280;50528;48.514;14.394;2023-03-15T01:06:44;92976.55;;;3.57;69.75
64211;BME280;50528;48.514;14.394;2023-03-15T01:07:17;92978.70;;;3.60;69.84
64211;BME280;50528;48.514;14.394;2023-03-15T01:07:51;92979.85;;;3.67;69.69
64211;BME280;50528;48.514;14.394;2023-03-15T01:08:25;92978.86;;;3.64;69.74
64211;BME280;50528;48.514;14.394;2023-03-15T01:08:58;92980.45;;;3.59;69.87
64211;BME280;50528;48.514;14.394;2023-03-15T01:09:34;92982.12;;;3.55;70.08
64211;BME280;50528;48.514;14.394;2023-03-15T01:10:09;92982.77;;;3.54;70.22
64211;BME280;50528;48.514;14.394;2023-03-15T01:10:42;92981.66;;;3.57;70.20
64211;BME280;50528;48.514;14.394;2023-03-15T01:11:20;92985.55;;;3.57;70.24
64211;BME280;50528;48.514;14.394;2023-03-15T01:11:59;92981.29;;;3.57;70.27
64211;BME280;50528;48.514;14.394;2023-03-15T01:12:33;92982.69;;;3.57;70.28
64211;BME280;50528;48.514;14.394;2023-03-15T01:13:07;92982.69;;;3.55;70.35
64211;BME280;50528;48.514;14.394;2023-03-15T01:13:40;92975.91;;;3.52;70.42
64211;BME280;50528;48.514;14.394;2023-03-15T01:14:14;92983.91;;;3.56;70.49
64211;BME280;50528;48.514;14.394;2023-03-15T01:14:48;92985.11;;;3.59;70.53
64211;BME280;50528;48.514;14.394;2023-03-15T01:15:21;92985.35;;;3.60;70.44
64211;BME280;50528;48.514;14.394;2023-03-15T01:15:54;92987.20;;;3.61;70.43
64211;BME280;50528;48.514;14.394;2023-03-15T01:16:30;92987.89;;;3.62;70.44
64211;BME280;50528;48.514;14.394;2023-03-15T01:17:04;92982.98;;;3.62;70.56
64211;BME280;50528;48.514;14.394;2023-03-15T01:17:38;92988.59;;;3.65;70.60
64211;BME280;50528;48.514;14.394;2023-03-15T01:18:11;92988.55;;;3.68;70.59
64211;BME280;50528;48.514;14.394;2023-03-15T01:18:46;92987.73;;;3.70;70.57
64211;BME280;50528;48.514;14.394;2023-03-15T01:19:19;92990.17;;;3.74;70.39
64211;BME280;50528;48.514;14.394;2023-03-15T01:19:53;92989.77;;;3.75;70.33
64211;BME280;50528;48.514;14.394;2023-03-15T01:20:26;92988.35;;;3.76;70.30
64211;BME280;50528;48.514;14.394;2023-03-15T01:21:00;92985.66;;;3.76;70.34
64211;BME280;50528;48.514;14.394;2023-03-15T01:21:36;92988.14;;;3.78;70.26
64211;BME280;50528;48.514;14.394;2023-03-15T01:22:09;92984.93;;;3.79;70.31
64211;BME280;50528;48.514;14.394;2023-03-15T01:22:43;92985.36;;;3.79;70.31
64211;BME280;50528;48.514;14.394;2023-03-15T01:23:16;92985.85;;;3.82;70.23
64211;BME280;50528;48.514;14.394;2023-03-15T01:23:52;92983.59;;;3.83;70.14
64211;BME280;50528;48.514;14.394;2023-03-15T01:24:27;92982.05;;;3.82;70.05
64211;BME280;50528;48.514;14.394;2023-03-15T01:25:00;92982.86;;;3.81;70.03
64211;BME280;50528;48.514;14.394;2023-03-15T01:25:33;92985.18;;;3.82;70.00
64211;BME280;50528;48.514;14.394;2023-03-15T01:26:10;92985.27;;;3.86;69.97
64211;BME280;50528;48.514;14.394;2023-03-15T01:26:43;92987.77;;;3.93;69.70
64211;BME280;50528;48.514;14.394;2023-03-15T01:27:17;92983.20;;;3.94;69.39
64211;BME280;50528;48.514;14.394;2023-03-15T01:27:50;92986.47;;;3.92;69.44
64211;BME280;50528;48.514;14.394;2023-03-15T01:28:25;92987.59;;;3.90;69.53
64211;BME280;50528;48.514;14.394;2023-03-15T01:28:58;92985.66;;;3.88;69.70
64211;BME280;50528;48.514;14.394;2023-03-15T01:29:32;92987.57;;;3.87;69.78
64211;BME280;50528;48.514;14.394;2023-03-15T01:30:06;92985.91;;;3.85;69.78
64211;BME280;50528;48.514;14.394;2023-03-15T01:30:50;92986.23;;;3.83;69.91
64211;BME280;50528;48.514;14.394;2023-03-15T01:31:27;92987.06;;;3.82;70.00
64211;BME280;50528;48.514;14.394;2023-03-15T01:32:01;92985.38;;;3.82;70.15
64211;BME280;50528;48.514;14.394;2023-03-15T01:32:34;92986.90;;;3.83;70.14
64211;BME280;50528;48.514;14.394;2023-03-15T01:33:08;92986.31;;;3.84;70.28
64211;BME280;50528;48.514;14.394;2023-03-15T01:33:41;92985.83;;;3.86;70.25
64211;BME280;50528;48.514;14.394;2023-03-15T01:34:15;92987.94;;;3.89;70.13
64211;BME280;50528;48.514;14.394;2023-03-15T01:34:48;92986.42;;;3.89;70.06
64211;BME280;50528;48.514;14.394;2023-03-15T01:35:22;92989.05;;;3.88;70.15
64211;BME280;50528;48.514;14.394;2023-03-15T01:36:13;92990.69;;;3.87;70.17
64211;BME280;50528;48.514;14.394;2023-03-15T01:36:49;92989.64;;;3.84;70.21
64211;BME280;50528;48.514;14.394;2023-03-15T01:37:25;92989.05;;;3.84;70.20
64211;BME280;50528;48.514;14.394;2023-03-15T01:38:01;92987.92;;;3.86;70.18
64211;BME280;50528;48.514;14.394;2023-03-15T01:38:36;92983.16;;;3.82;70.13
64211;BME280;50528;48.514;14.394;2023-03-15T01:39:14;92985.81;;;3.85;70.17
64211;BME280;50528;48.514;14.394;2023-03-15T01:39:49;92987.53;;;3.88;70.25
64211;BME280;50528;48.514;14.394;2023-03-15T01:40:23;92986.38;;;3.90;70.07
64211;BME280;50528;48.514;14.394;2023-03-15T01:40:57;92989.89;;;3.88;70.09
64211;BME280;50528;48.514;14.394;2023-03-15T01:41:30;92983.71;;;3.85;70.18
64211;BME280;50528;48.514;14.394;2023-03-15T01:42:04;92983.95;;;3.83;70.24
64211;BME280;50528;48.514;14.394;2023-03-15T01:43:20;92983.08;;;3.84;70.26
64211;BME280;50528;48.514;14.394;2023-03-15T01:43:53;92984.59;;;3.81;70.20
64211;BME280;50528;48.514;14.394;2023-03-15T01:44:54;92986.04;;;3.80;70.21
64211;BME280;50528;48.514;14.394;2023-03-15T01:46:42;92990.64;;;3.70;70.57
64211;BME280;50528;48.514;14.394;2023-03-15T01:47:28;92986.40;;;3.72;70.44
64211;BME280;50528;48.514;14.394;2023-03-15T01:48:03;92986.42;;;3.73;70.49
64211;BME280;50528;48.514;14.394;2023-03-15T01:48:42;92982.86;;;3.74;70.45
64211;BME280;50528;48.514;14.394;2023-03-15T01:49:26;92982.23;;;3.74;70.47
64211;BME280;50528;48.514;14.394;2023-03-15T01:50:07;92982.33;;;3.70;70.67
64211;BME280;50528;48.514;14.394;2023-03-15T01:50:43;92982.77;;;3.67;70.70
64211;BME280;50528;48.514;14.394;2023-03-15T01:52:02;92980.83;;;3.71;70.92
64211;BME280;50528;48.514;14.394;2023-03-15T01:52:50;92981.16;;;3.77;70.70
64211;BME280;50528;48.514;14.394;2023-03-15T01:53:25;92978.06;;;3.74;70.75
64211;BME280;50528;48.514;14.394;2023-03-15T01:55:17;92980.23;;;3.68;71.01
64211;BME280;50528;48.514;14.394;2023-03-15T01:56:39;92970.03;;;3.68;71.20
64211;BME280;50528;48.514;14.394;2023-03-15T01:57:28;92977.05;;;3.65;71.16
64211;BME280;50528;48.514;14.394;2023-03-15T01:58:07;92977.37;;;3.63;71.12
64211;BME280;50528;48.514;14.394;2023-03-15T01:58:47;92978.66;;;3.62;71.06
64211;BME280;50528;48.514;14.394;2023-03-15T01:59:39;92977.42;;;3.61;71.12
64211;BME280;50528;48.514;14.394;2023-03-15T02:00:18;92979.99;;;3.60;71.29
64211;BME280;50528;48.514;14.394;2023-03-15T02:01:01;92981.27;;;3.60;71.43
64211;BME280;50528;48.514;14.394;2023-03-15T02:01:38;92980.34;;;3.62;71.54
64211;BME280;50528;48.514;14.394;2023-03-15T02:02:19;92979.04;;;3.68;71.45
64211;BME280;50528;48.514;14.394;2023-03-15T02:02:59;92978.90;;;3.64;71.44
64211;BME280;50528;48.514;14.394;2023-03-15T02:03:42;92976.34;;;3.62;71.64
64211;BME280;50528;48.514;14.394;2023-03-15T02:04:33;92977.85;;;3.59;71.67
64211;BME280;50528;48.514;14.394;2023-03-15T02:05:10;92981.12;;;3.59;71.55
64211;BME280;50528;48.514;14.394;2023-03-15T02:05:53;92977.05;;;3.58;71.72
64211;BME280;50528;48.514;14.394;2023-03-15T02:06:41;92976.60;;;3.59;71.76
64211;BME280;50528;48.514;14.394;2023-03-15T02:07:23;92979.77;;;3.59;71.77
64211;BME280;50528;48.514;14.394;2023-03-15T02:07:58;92978.80;;;3.60;71.95
64211;BME280;50528;48.514;14.394;2023-03-15T02:08:39;92977.44;;;3.60;71.77
64211;BME280;50528;48.514;14.394;2023-03-15T02:09:16;92979.64;;;3.60;71.86
64211;BME280;50528;48.514;14.394;2023-03-15T02:09:59;92980.29;;;3.62;71.99
64211;BME280;50528;48.514;14.394;2023-03-15T02:10:47;92977.09;;;3.62;71.88
64211;BME280;50528;48.514;14.394;2023-03-15T02:11:24;92978.04;;;3.63;72.08
64211;BME280;50528;48.514;14.394;2023-03-15T02:11:59;92977.73;;;3.65;71.96
64211;BME280;50528;48.514;14.394;2023-03-15T02:12:37;92974.16;;;3.66;71.98
64211;BME280;50528;48.514;14.394;2023-03-15T02:13:19;92973.73;;;3.70;72.02
64211;BME280;50528;48.514;14.394;2023-03-15T02:13:58;92972.52;;;3.69;72.03
64211;BME280;50528;48.514;14.394;2023-03-15T02:14:33;92975.96;;;3.72;72.03
64211;BME280;50528;48.514;14.394;2023-03-15T02:15:08;92974.39;;;3.72;71.99
64211;BME280;50528;48.514;14.394;2023-03-15T02:15:44;92973.83;;;3.74;71.94
64211;BME280;50528;48.514;14.394;2023-03-15T02:16:25;92975.05;;;3.75;71.97
64211;BME280;50528;48.514;14.394;2023-03-15T02:17:04;92974.16;;;3.76;71.94
64211;BME280;50528;48.514;14.394;2023-03-15T02:17:42;92974.42;;;3.78;71.95
64211;BME280;50528;48.514;14.394;2023-03-15T02:18:16;92972.80;;;3.80;71.89
64211;BME280;50528;48.514;14.394;2023-03-15T02:18:50;92973.52;;;3.80;71.94
64211;BME280;50528;48.514;14.394;2023-03-15T02:23:13;92971.40;;;3.80;71.98
64211;BME280;50528;48.514;14.394;2023-03-15T02:23:27;92976.09;;;3.75;72.00
64211;BME280;50528;48.514;14.394;2023-03-15T02:26:54;92980.00;;;3.76;71.95
64211;BME280;50528;48.514;14.394;2023-03-15T02:27:32;92978.36;;;3.75;72.02
64211;BME280;50528;48.514;14.394;2023-03-15T02:28:11;92980.30;;;3.75;72.00
64211;BME280;50528;48.514;14.394;2023-03-15T02:28:48;92981.77;;;3.79;71.97
64211;BME280;50528;48.514;14.394;2023-03-15T02:29:25;92982.52;;;3.80;71.95
64211;BME280;50528;48.514;14.394;2023-03-15T02:30:01;92976.77;;;3.80;71.95
64211;BME280;50528;48.514;14.394;2023-03-15T02:30:38;92980.18;;;3.82;71.94
64211;BME280;50528;48.514;14.394;2023-03-15T02:31:12;92982.06;;;3.82;71.92
64211;BME280;50528;48.514;14.394;2023-03-15T02:31:46;92983.02;;;3.84;72.00
64211;BME280;50528;48.514;14.394;2023-03-15T02:32:21;92982.67;;;3.85;71.95
64211;BME280;50528;48.514;14.394;2023-03-15T02:32:56;92983.97;;;3.86;71.98
64211;BME280;50528;48.514;14.394;2023-03-15T02:33:43;92980.56;;;3.87;71.95
64211;BME280;50528;48.514;14.394;2023-03-15T02:34:17;92982.76;;;3.87;71.94
64211;BME280;50528;48.514;14.394;2023-03-15T02:34:50;92984.51;;;3.90;71.98
64211;BME280;50528;48.514;14.394;2023-03-15T02:35:30;92981.86;;;3.90;71.94
64211;BME280;50528;48.514;14.394;2023-03-15T02:36:25;92977.98;;;3.89;71.93
64211;BME280;50528;48.514;14.394;2023-03-15T02:36:58;92978.03;;;3.88;71.96
64211;BME280;50528;48.514;14.394;2023-03-15T02:37:32;92976.52;;;3.88;72.05
64211;BME280;50528;48.514;14.394;2023-03-15T02:38:06;92975.96;;;3.91;71.87
64211;BME280;50528;48.514;14.394;2023-03-15T02:38:40;92978.68;;;3.89;71.95
64211;BME280;50528;48.514;14.394;2023-03-15T02:39:22;92978.66;;;3.88;71.96
64211;BME280;50528;48.514;14.394;2023-03-15T02:39:56;92979.15;;;3.89;71.93
64211;BME280;50528;48.514;14.394;2023-03-15T02:40:30;92980.27;;;3.93;71.83
64211;BME280;50528;48.514;14.394;2023-03-15T02:41:06;92979.13;;;3.98;71.26
64211;BME280;50528;48.514;14.394;2023-03-15T02:41:41;92980.83;;;3.92;71.23
64211;BME280;50528;48.514;14.394;2023-03-15T02:42:16;92981.06;;;3.85;71.41
64211;BME280;50528;48.514;14.394;2023-03-15T02:42:55;92981.38;;;3.82;71.58
64211;BME280;50528;48.514;14.394;2023-03-15T02:43:30;92981.18;;;3.78;71.59
64211;BME280;50528;48.514;14.394;2023-03-15T02:44:13;92977.28;;;3.75;71.66
64211;BME280;50528;48.514;14.394;2023-03-15T02:44:48;92979.95;;;3.71;71.77
64211;BME280;50528;48.514;14.394;2023-03-15T02:45:23;92979.06;;;3.70;71.84
64211;BME280;50528;48.514;14.394;2023-03-15T02:45:58;92982.41;;;3.70;71.94
64211;BME280;50528;48.514;14.394;2023-03-15T02:46:33;92978.56;;;3.70;71.85
64211;BME280;50528;48.514;14.394;2023-03-15T02:47:16;92985.66;;;3.83;71.59
64211;BME280;50528;48.514;14.394;2023-03-15T02:47:51;92984.03;;;3.87;71.06
64211;BME280;50528;48.514;14.394;2023-03-15T02:48:25;92990.01;;;3.77;71.30
64211;BME280;50528;48.514;14.394;2023-03-15T02:49:00;92987.21;;;3.78;71.33
64211;BME280;50528;48.514;14.394;2023-03-15T02:50:42;92994.80;;;3.65;71.64
64211;BME280;50528;48.514;14.394;2023-03-15T02:51:19;92993.60;;;3.57;71.71
64211;BME280;50528;48.514;14.394;2023-03-15T02:51:53;92996.10;;;3.53;71.77
64211;BME280;50528;48.514;14.394;2023-03-15T02:52:27;92996.66;;;3.55;71.85
64211;BME280;50528;48.514;14.394;2023-03-15T02:53:00;92997.63;;;3.56;71.91
64211;BME280;50528;48.514;14.394;2023-03-15T02:53:35;92999.69;;;3.60;71.99
64211;BME280;50528;48.514;14.394;2023-03-15T02:54:09;93000.70;;;3.63;71.91
64211;BME280;50528;48.514;14.394;2023-03-15T02:54:42;93002.11;;;3.59;71.91
64211;BME280;50528;48.514;14.394;2023-03-15T02:55:17;93000.48;;;3.58;71.97
64211;BME280;50528;48.514;14.394;2023-03-15T02:55:51;92999.19;;;3.58;72.04
64211;BME280;50528;48.514;14.394;2023-03-15T02:56:25;93001.19;;;3.60;72.20
64211;BME280;50528;48.514;14.394;2023-03-15T02:57:00;93003.14;;;3.63;72.12
64211;BME280;50528;48.514;14.394;2023-03-15T02:57:35;93000.27;;;3.65;72.04
64211;BME280;50528;48.514;14.394;2023-03-15T02:58:10;93005.06;;;3.70;71.97
64211;BME280;50528;48.514;14.394;2023-03-15T02:58:44;93007.91;;;3.72;71.84
64211;BME280;50528;48.514;14.394;2023-03-15T02:59:18;93008.77;;;3.68;71.90
64211;BME280;50528;48.514;14.394;2023-03-15T02:59:52;93009.13;;;3.66;72.06
64211;BME280;50528;48.514;14.394;2023-03-15T03:00:27;93011.75;;;3.67;72.09
64211;BME280;50528;48.514;14.394;2023-03-15T03:01:02;93014.53;;;3.73;71.99
64211;BME280;50528;48.514;14.394;2023-03-15T03:01:36;93010.42;;;3.72;71.95
64211;BME280;50528;48.514;14.394;2023-03-15T03:02:13;93014.61;;;3.71;71.94
64211;BME280;50528;48.514;14.394;2023-03-15T03:02:47;93013.61;;;3.68;72.21
64211;BME280;50528;48.514;14.394;2023-03-15T03:03:21;93012.98;;;3.70;72.01
64211;BME280;50528;48.514;14.394;2023-03-15T03:03:55;93017.23;;;3.72;71.98
64211;BME280;50528;48.514;14.394;2023-03-15T03:04:29;93017.92;;;3.68;72.12
64211;BME280;50528;48.514;14.394;2023-03-15T03:05:03;93013.67;;;3.67;72.15
64211;BME280;50528;48.514;14.394;2023-03-15T03:05:37;93019.21;;;3.63;72.31
64211;BME280;50528;48.514;14.394;2023-03-15T03:06:12;93019.92;;;3.63;72.40
64211;BME280;50528;48.514;14.394;2023-03-15T03:06:46;93020.04;;;3.61;72.47
64211;BME280;50528;48.514;14.394;2023-03-15T03:07:22;93020.70;;;3.67;72.36
64211;BME280;50528;48.514;14.394;2023-03-15T03:07:59;93018.39;;;3.70;72.18
64211;BME280;50528;48.514;14.394;2023-03-15T03:08:35;93023.65;;;3.68;72.20
64211;BME280;50528;48.514;14.394;2023-03-15T03:09:10;93024.61;;;3.68;72.14
64211;BME280;50528;48.514;14.394;2023-03-15T03:09:44;93021.92;;;3.66;72.16
64211;BME280;50528;48.514;14.394;2023-03-15T03:10:18;93025.82;;;3.73;71.96
64211;BME280;50528;48.514;14.394;2023-03-15T03:10:58;93025.78;;;3.67;71.96
64211;BME280;50528;48.514;14.394;2023-03-15T03:11:32;93025.41;;;3.60;72.25
64211;BME280;50528;48.514;14.394;2023-03-15T03:12:06;93022.39;;;3.57;72.32
64211;BME280;50528;48.514;14.394;2023-03-15T03:12:40;93027.81;;;3.63;72.24
64211;BME280;50528;48.514;14.394;2023-03-15T03:13:14;93025.27;;;3.61;72.22
64211;BME280;50528;48.514;14.394;2023-03-15T03:13:47;93027.48;;;3.60;72.31
64211;BME280;50528;48.514;14.394;2023-03-15T03:14:21;93027.45;;;3.58;72.40
64211;BME280;50528;48.514;14.394;2023-03-15T03:14:56;93028.58;;;3.57;72.55
64211;BME280;50528;48.514;14.394;2023-03-15T03:15:29;93030.77;;;3.62;72.35
64211;BME280;50528;48.514;14.394;2023-03-15T03:16:03;93029.38;;;3.62;72.35
64211;BME280;50528;48.514;14.394;2023-03-15T03:16:37;93035.08;;;3.60;72.44
64211;BME280;50528;48.514;14.394;2023-03-15T03:17:11;93033.10;;;3.57;72.51
64211;BME280;50528;48.514;14.394;2023-03-15T03:17:45;93038.00;;;3.63;72.46
64211;BME280;50528;48.514;14.394;2023-03-15T03:18:19;93034.20;;;3.58;72.48
64211;BME280;50528;48.514;14.394;2023-03-15T03:18:53;93033.61;;;3.55;72.59
64211;BME280;50528;48.514;14.394;2023-03-15T03:19:26;93034.99;;;3.53;72.62
64211;BME280;50528;48.514;14.394;2023-03-15T03:20:00;93038.23;;;3.55;72.66
64211;BME280;50528;48.514;14.394;2023-03-15T03:20:37;93038.45;;;3.54;72.72
64211;BME280;50528;48.514;14.394;2023-03-15T03:21:11;93042.83;;;3.66;72.57
64211;BME280;50528;48.514;14.394;2023-03-15T03:21:48;93041.79;;;3.63;72.34